createdAt,value
2019-05-16T00:00:53.185Z,66.09
2019-05-16T00:01:53.113Z,64.65
2019-05-16T00:02:53.060Z,64.75
2019-05-16T00:03:53.009Z,64.65
2019-05-16T00:04:52.955Z,64.56
2019-05-16T00:05:54.576Z,64.75
2019-05-16T00:06:52.852Z,64.75
2019-05-16T00:07:52.801Z,64.56
2019-05-16T00:08:52.750Z,64.56
2019-05-16T00:09:52.700Z,65.33
2019-05-16T00:10:52.803Z,65.23
2019-05-16T00:11:52.591Z,65.70
2019-05-16T00:12:52.540Z,66.18
2019-05-16T00:13:52.492Z,65.42
2019-05-16T00:14:52.441Z,66.18
2019-05-16T00:15:52.386Z,66.47
2019-05-16T00:16:52.361Z,66.28
2019-05-16T00:17:52.295Z,66.15
2019-05-16T00:18:52.233Z,64.53
2019-05-16T00:19:52.180Z,64.72
2019-05-16T00:20:52.131Z,65.39
2019-05-16T00:21:52.101Z,66.24
2019-05-16T00:22:52.026Z,66.24
2019-05-16T00:23:51.974Z,66.34
2019-05-16T00:24:51.919Z,66.34
2019-05-16T00:25:51.870Z,66.15
2019-05-16T00:26:51.839Z,66.72
2019-05-16T00:27:51.765Z,66.63
2019-05-16T00:28:51.718Z,66.53
2019-05-16T00:29:51.661Z,67.00
2019-05-16T00:30:51.616Z,67.10
2019-05-16T00:31:51.583Z,67.10
2019-05-16T00:32:51.518Z,67.39
2019-05-16T00:33:51.457Z,67.10
2019-05-16T00:34:51.411Z,67.39
2019-05-16T00:36:02.231Z,67.39
2019-05-16T00:36:51.322Z,67.77
2019-05-16T00:37:51.243Z,67.29
2019-05-16T00:38:51.192Z,67.39
2019-05-16T00:39:51.140Z,67.39
2019-05-16T00:40:51.090Z,67.48
2019-05-16T00:41:51.071Z,67.48
2019-05-16T00:42:50.982Z,67.86
2019-05-16T00:43:50.932Z,67.86
2019-05-16T00:44:50.879Z,67.96
2019-05-16T00:45:50.828Z,67.86
2019-05-16T00:46:50.802Z,68.05
2019-05-16T00:47:50.721Z,67.74
2019-05-16T00:48:50.673Z,67.20
2019-05-16T00:49:50.619Z,67.39
2019-05-16T00:50:50.570Z,68.05
2019-05-16T00:51:50.543Z,67.55
2019-05-16T00:52:50.460Z,67.35
2019-05-16T00:53:50.409Z,67.74
2019-05-16T00:54:50.359Z,67.83
2019-05-16T00:55:50.306Z,67.64
2019-05-16T00:56:50.288Z,67.64
2019-05-16T00:57:50.210Z,67.45
2019-05-16T00:58:50.148Z,67.83
2019-05-16T00:59:50.097Z,67.26
2019-05-16T01:00:50.522Z,67.26
2019-05-16T01:01:50.456Z,67.45
2019-05-16T01:02:49.939Z,66.97
2019-05-16T01:03:49.887Z,67.26
2019-05-16T01:04:49.831Z,67.45
2019-05-16T01:05:49.781Z,67.93
2019-05-16T01:06:49.750Z,67.93
2019-05-16T01:07:49.678Z,67.55
2019-05-16T01:08:49.630Z,67.74
2019-05-16T01:09:49.572Z,67.26
2019-05-16T01:10:51.584Z,67.64
2019-05-16T01:11:49.498Z,67.55
2019-05-16T01:12:49.417Z,67.64
2019-05-16T01:13:49.366Z,68.02
2019-05-16T01:14:49.308Z,67.83
2019-05-16T01:15:49.264Z,67.64
2019-05-16T01:16:49.234Z,68.02
2019-05-16T01:17:49.153Z,67.93
2019-05-16T01:18:49.101Z,68.02
2019-05-16T01:19:49.048Z,67.93
2019-05-16T01:20:48.996Z,68.02
2019-05-16T01:21:48.970Z,68.30
2019-05-16T01:22:49.206Z,67.93
2019-05-16T01:23:48.842Z,67.64
2019-05-16T01:24:49.285Z,67.83
2019-05-16T01:25:48.734Z,68.21
2019-05-16T01:26:48.705Z,67.93
2019-05-16T01:27:48.626Z,68.30
2019-05-16T01:28:48.604Z,68.30
2019-05-16T01:29:48.524Z,68.30
2019-05-16T01:30:49.065Z,67.93
2019-05-16T01:31:48.497Z,68.02
2019-05-16T01:32:49.199Z,68.50
2019-05-16T01:33:48.312Z,68.50
2019-05-16T01:34:48.387Z,68.40
2019-05-16T01:35:48.207Z,68.69
2019-05-16T01:36:48.646Z,68.69
2019-05-16T01:37:48.787Z,68.78
2019-05-16T01:38:48.233Z,68.69
2019-05-16T01:39:48.395Z,68.78
2019-05-16T01:40:49.190Z,69.26
2019-05-16T01:41:48.153Z,68.50
2019-05-16T01:42:48.995Z,68.30
2019-05-16T01:43:48.303Z,68.88
2019-05-16T01:44:48.696Z,68.88
2019-05-16T01:45:48.760Z,68.78
2019-05-16T01:46:48.088Z,69.26
2019-05-16T01:47:48.184Z,69.45
2019-05-16T01:48:48.482Z,69.17
2019-05-16T01:49:48.733Z,69.64
2019-05-16T01:50:48.102Z,69.54
2019-05-16T01:51:48.416Z,69.26
2019-05-16T01:52:48.675Z,69.60
2019-05-16T01:53:48.826Z,69.42
2019-05-16T01:54:48.108Z,69.23
2019-05-16T01:55:48.937Z,69.54
2019-05-16T01:56:48.114Z,69.99
2019-05-16T01:57:48.109Z,69.93
2019-05-16T01:58:48.987Z,70.18
2019-05-16T01:59:48.524Z,70.37
2019-05-16T02:01:00.094Z,70.59
2019-05-16T02:01:48.421Z,70.27
2019-05-16T02:02:48.818Z,69.89
2019-05-16T02:03:48.110Z,69.79
2019-05-16T02:04:48.520Z,70.37
2019-05-16T02:05:48.072Z,70.18
2019-05-16T02:06:53.761Z,69.79
2019-05-16T02:07:48.012Z,70.65
2019-05-16T02:08:48.509Z,70.47
2019-05-16T02:09:47.643Z,71.03
2019-05-16T02:10:47.853Z,71.03
2019-05-16T02:11:48.151Z,70.75
2019-05-16T02:12:46.279Z,70.94
2019-05-16T02:13:48.217Z,70.56
2019-05-16T02:14:47.968Z,70.56
2019-05-16T02:15:48.632Z,70.47
2019-05-16T02:16:47.737Z,70.75
2019-05-16T02:17:48.294Z,71.32
2019-05-16T02:18:45.939Z,71.42
2019-05-16T02:19:45.886Z,71.32
2019-05-16T02:20:47.868Z,71.22
2019-05-16T02:21:47.636Z,71.89
2019-05-16T02:22:48.001Z,71.70
2019-05-16T02:23:45.672Z,71.98
2019-05-16T02:24:47.846Z,72.46
2019-05-16T02:25:45.566Z,72.37
2019-05-16T02:26:45.511Z,72.17
2019-05-16T02:27:45.483Z,72.27
2019-05-16T02:28:45.417Z,72.56
2019-05-16T02:29:45.357Z,72.56
2019-05-16T02:30:45.302Z,72.65
2019-05-16T02:31:45.252Z,72.85
2019-05-16T02:32:45.218Z,72.46
2019-05-16T02:33:45.143Z,72.85
2019-05-16T02:34:45.103Z,72.75
2019-05-16T02:35:45.042Z,72.75
2019-05-16T02:36:44.983Z,73.41
2019-05-16T02:37:44.963Z,73.13
2019-05-16T02:38:44.880Z,73.22
2019-05-16T02:39:44.823Z,73.61
2019-05-16T02:40:44.789Z,73.61
2019-05-16T02:41:46.234Z,73.61
2019-05-16T02:42:44.693Z,73.80
2019-05-16T02:43:44.615Z,73.80
2019-05-16T02:44:44.564Z,74.46
2019-05-16T02:45:44.511Z,74.27
2019-05-16T02:46:44.456Z,74.08
2019-05-16T02:47:44.458Z,74.08
2019-05-16T02:48:44.361Z,74.08
2019-05-16T02:49:44.297Z,74.18
2019-05-16T02:50:44.246Z,74.65
2019-05-16T02:51:44.191Z,74.56
2019-05-16T02:52:44.141Z,74.46
2019-05-16T02:53:44.111Z,74.56
2019-05-16T02:54:44.033Z,74.75
2019-05-16T02:55:43.984Z,74.65
2019-05-16T02:56:43.931Z,75.42
2019-05-16T02:57:43.875Z,75.32
2019-05-16T02:58:44.802Z,75.60
2019-05-16T02:59:43.769Z,75.79
2019-05-16T03:00:43.716Z,76.18
2019-05-16T03:01:43.666Z,76.65
2019-05-16T03:02:43.617Z,76.04
2019-05-16T03:03:44.169Z,76.37
2019-05-16T03:04:44.387Z,76.42
2019-05-16T03:05:43.470Z,76.56
2019-05-16T03:06:43.396Z,76.27
2019-05-16T03:07:46.801Z,76.94
2019-05-16T03:08:43.314Z,77.09
2019-05-16T03:09:43.240Z,77.22
2019-05-16T03:10:43.182Z,77.28
2019-05-16T03:11:43.132Z,77.47
2019-05-16T03:12:43.081Z,77.61
2019-05-16T03:13:43.049Z,77.47
2019-05-16T03:14:42.982Z,77.47
2019-05-16T03:15:42.921Z,77.37
2019-05-16T03:16:42.867Z,77.19
2019-05-16T03:17:42.827Z,77.37
2019-05-16T03:18:42.784Z,77.66
2019-05-16T03:19:42.710Z,77.95
2019-05-16T03:20:42.659Z,78.08
2019-05-16T03:21:42.600Z,77.80
2019-05-16T03:22:42.546Z,77.51
2019-05-16T03:23:42.514Z,77.89
2019-05-16T03:24:42.446Z,78.17
2019-05-16T03:25:42.388Z,77.98
2019-05-16T03:26:42.336Z,77.95
2019-05-16T03:27:42.284Z,77.70
2019-05-16T03:28:42.295Z,78.33
2019-05-16T03:29:42.179Z,77.70
2019-05-16T03:30:44.801Z,78.23
2019-05-16T03:31:44.812Z,78.04
2019-05-16T03:32:44.881Z,78.17
2019-05-16T03:33:50.351Z,78.61
2019-05-16T03:34:43.986Z,78.04
2019-05-16T03:35:44.599Z,78.27
2019-05-16T03:36:43.798Z,77.85
2019-05-16T03:37:55.067Z,78.04
2019-05-16T03:38:41.737Z,78.33
2019-05-16T03:39:41.684Z,78.14
2019-05-16T03:40:41.595Z,78.56
2019-05-16T03:41:41.653Z,78.99
2019-05-16T03:42:41.776Z,78.90
2019-05-16T03:43:41.498Z,78.71
2019-05-16T03:44:41.384Z,78.80
2019-05-16T03:45:41.878Z,78.90
2019-05-16T03:46:41.534Z,79.03
2019-05-16T03:47:42.699Z,78.71
2019-05-16T03:48:41.231Z,79.03
2019-05-16T03:49:42.170Z,78.90
2019-05-16T03:50:41.376Z,79.32
2019-05-16T03:51:41.670Z,79.13
2019-05-16T03:52:43.510Z,78.94
2019-05-16T03:53:40.945Z,79.19
2019-05-16T03:54:42.083Z,79.60
2019-05-16T03:55:41.111Z,79.22
2019-05-16T03:56:40.955Z,79.85
2019-05-16T03:57:41.747Z,79.75
2019-05-16T03:58:41.435Z,79.85
2019-05-16T03:59:40.939Z,78.99
2019-05-16T04:00:45.345Z,79.85
2019-05-16T04:01:41.159Z,79.85
2019-05-16T04:02:41.930Z,79.85
2019-05-16T04:03:41.178Z,79.85
2019-05-16T04:04:41.721Z,80.61
2019-05-16T04:05:41.408Z,79.66
2019-05-16T04:06:41.584Z,79.85
2019-05-16T04:07:41.389Z,80.13
2019-05-16T04:08:41.259Z,80.33
2019-05-16T04:09:41.115Z,80.90
2019-05-16T04:10:40.951Z,81.18
2019-05-16T04:11:42.592Z,81.28
2019-05-16T04:12:41.907Z,80.99
2019-05-16T04:13:41.154Z,80.61
2019-05-16T04:14:40.990Z,80.61
2019-05-16T04:15:40.788Z,81.09
2019-05-16T04:16:41.376Z,81.56
2019-05-16T04:17:41.244Z,81.18
2019-05-16T04:18:41.985Z,80.90
2019-05-16T04:19:41.604Z,81.28
2019-05-16T04:20:40.632Z,80.80
2019-05-16T04:21:42.203Z,81.28
2019-05-16T04:22:40.833Z,81.37
2019-05-16T04:23:41.915Z,81.28
2019-05-16T04:24:41.609Z,81.18
2019-05-16T04:25:41.078Z,81.28
2019-05-16T04:26:41.210Z,80.75
2019-05-16T04:27:41.632Z,80.94
2019-05-16T04:28:41.331Z,81.28
2019-05-16T04:29:40.829Z,80.75
2019-05-16T04:30:41.393Z,81.32
2019-05-16T04:31:41.344Z,81.41
2019-05-16T04:32:41.504Z,81.79
2019-05-16T04:33:41.482Z,80.65
2019-05-16T04:34:41.570Z,80.84
2019-05-16T04:35:41.161Z,81.41
2019-05-16T04:36:40.705Z,81.37
2019-05-16T04:37:41.750Z,80.80
2019-05-16T04:38:45.124Z,82.08
2019-05-16T04:39:41.356Z,81.51
2019-05-16T04:40:39.503Z,81.13
2019-05-16T04:41:40.948Z,80.71
2019-05-16T04:42:41.345Z,80.99
2019-05-16T04:43:41.310Z,81.32
2019-05-16T04:44:41.372Z,81.32
2019-05-16T04:45:41.154Z,81.23
2019-05-16T04:46:41.034Z,81.89
2019-05-16T04:47:41.092Z,81.41
2019-05-16T04:48:41.390Z,81.13
2019-05-16T04:49:40.965Z,82.18
2019-05-16T04:50:37.895Z,81.41
2019-05-16T04:51:41.144Z,81.03
2019-05-16T04:52:37.769Z,80.84
2019-05-16T04:53:37.725Z,81.23
2019-05-16T04:54:40.957Z,80.36
2019-05-16T04:55:37.636Z,79.99
2019-05-16T04:56:40.969Z,79.99
2019-05-16T04:59:15.908Z,79.60
2019-05-16T05:00:11.166Z,79.80
2019-05-16T05:01:11.079Z,79.32
2019-05-16T05:02:11.897Z,79.32
2019-05-16T05:03:11.743Z,79.22
2019-05-16T05:04:14.115Z,79.32
2019-05-16T05:05:12.063Z,79.13
2019-05-16T05:06:11.149Z,78.94
2019-05-16T05:07:11.192Z,79.51
2019-05-16T05:08:10.849Z,79.03
2019-05-16T05:09:11.376Z,79.89
2019-05-16T05:10:11.395Z,79.03
2019-05-16T05:11:10.672Z,79.32
2019-05-16T05:12:11.161Z,79.80
2019-05-16T05:13:10.799Z,79.03
2019-05-16T05:14:10.496Z,79.07
2019-05-16T05:15:10.992Z,80.22
2019-05-16T05:16:10.460Z,79.51
2019-05-16T05:17:10.473Z,79.74
2019-05-16T05:18:10.161Z,78.98
2019-05-16T05:19:10.773Z,79.22
2019-05-16T05:20:10.414Z,79.51
2019-05-16T05:21:07.961Z,79.70
2019-05-16T05:22:07.864Z,80.02
2019-05-16T05:23:09.758Z,79.60
2019-05-16T05:24:07.761Z,79.70
2019-05-16T05:25:07.700Z,79.89
2019-05-16T05:26:07.669Z,80.46
2019-05-16T05:27:07.597Z,80.75
2019-05-16T05:28:09.867Z,81.74
2019-05-16T05:29:07.495Z,80.41
2019-05-16T05:30:07.439Z,80.31
2019-05-16T05:31:07.420Z,80.12
2019-05-16T05:32:07.336Z,80.50
2019-05-16T05:33:07.294Z,80.12
2019-05-16T05:34:07.233Z,80.31
2019-05-16T05:35:07.175Z,80.12
2019-05-16T05:36:07.159Z,80.02
2019-05-16T05:37:07.075Z,79.74
2019-05-16T05:38:07.025Z,80.02
2019-05-16T05:39:12.095Z,80.12
2019-05-16T05:40:06.910Z,80.98
2019-05-16T05:41:06.888Z,80.69
2019-05-16T05:42:06.808Z,79.93
2019-05-16T05:43:06.752Z,79.74
2019-05-16T05:44:06.707Z,79.46
2019-05-16T05:45:06.650Z,79.64
2019-05-16T05:46:06.625Z,79.55
2019-05-16T05:47:06.547Z,80.02
2019-05-16T05:48:06.496Z,79.74
2019-05-16T05:49:06.446Z,79.74
2019-05-16T05:50:06.388Z,80.02
2019-05-16T05:51:06.364Z,80.12
2019-05-16T05:52:06.286Z,80.88
2019-05-16T05:53:06.232Z,80.60
2019-05-16T05:54:06.179Z,80.50
2019-05-16T05:55:06.128Z,80.69
2019-05-16T05:56:06.105Z,80.69
2019-05-16T05:57:06.025Z,80.41
2019-05-16T05:58:05.960Z,80.12
2019-05-16T05:59:05.918Z,80.69
2019-05-16T06:00:05.867Z,79.83
2019-05-16T06:01:05.838Z,80.12
2019-05-16T06:02:05.777Z,80.12
2019-05-16T06:03:05.714Z,80.12
2019-05-16T06:04:05.658Z,80.02
2019-05-16T06:05:05.606Z,80.41
2019-05-16T06:06:05.574Z,80.50
2019-05-16T06:07:05.508Z,80.41
2019-05-16T06:08:05.445Z,80.31
2019-05-16T06:09:05.396Z,80.12
2019-05-16T06:10:05.352Z,80.41
2019-05-16T06:11:05.319Z,80.02
2019-05-16T06:12:07.542Z,80.12
2019-05-16T06:13:05.195Z,80.79
2019-05-16T06:14:05.135Z,81.55
2019-05-16T06:15:08.692Z,80.79
2019-05-16T06:16:05.069Z,80.88
2019-05-16T06:17:04.980Z,80.79
2019-05-16T06:18:04.930Z,81.55
2019-05-16T06:19:04.898Z,80.69
2019-05-16T06:20:04.840Z,80.88
2019-05-16T06:21:04.769Z,81.55
2019-05-16T06:22:04.739Z,81.36
2019-05-16T06:23:04.669Z,81.36
2019-05-16T06:24:04.614Z,81.46
2019-05-16T06:25:04.559Z,80.88
2019-05-16T06:26:04.509Z,81.07
2019-05-16T06:27:04.483Z,80.31
2019-05-16T06:28:04.404Z,80.12
2019-05-16T06:29:04.348Z,80.69
2019-05-16T06:30:04.311Z,80.50
2019-05-16T06:31:04.247Z,80.69
2019-05-16T06:32:04.221Z,81.17
2019-05-16T06:33:04.139Z,81.55
2019-05-16T06:34:08.131Z,81.55
2019-05-16T06:35:04.036Z,81.26
2019-05-16T06:36:04.008Z,81.46
2019-05-16T06:37:03.975Z,82.12
2019-05-16T06:38:03.879Z,82.31
2019-05-16T06:39:03.824Z,82.41
2019-05-16T06:40:03.775Z,82.12
2019-05-16T06:41:03.720Z,81.65
2019-05-16T06:42:03.694Z,81.46
2019-05-16T06:43:03.666Z,81.74
2019-05-16T06:44:03.567Z,81.74
2019-05-16T06:45:03.515Z,81.65
2019-05-16T06:46:03.466Z,81.46
2019-05-16T06:47:15.967Z,81.65
2019-05-16T06:48:03.357Z,81.46
2019-05-16T06:49:03.302Z,81.74
2019-05-16T06:50:03.250Z,82.12
2019-05-16T06:51:03.311Z,81.84
2019-05-16T06:52:03.173Z,81.93
2019-05-16T06:53:03.096Z,82.41
2019-05-16T06:54:03.041Z,82.21
2019-05-16T06:55:02.993Z,82.03
2019-05-16T06:56:02.942Z,82.21
2019-05-16T06:57:02.918Z,82.21
2019-05-16T06:58:02.831Z,82.41
2019-05-16T06:59:02.779Z,82.89
2019-05-16T07:00:02.727Z,83.36
2019-05-16T07:01:03.627Z,83.07
2019-05-16T07:02:02.662Z,82.21
2019-05-16T07:03:02.573Z,81.84
2019-05-16T07:04:04.957Z,82.21
2019-05-16T07:05:02.460Z,81.65
2019-05-16T07:06:02.414Z,81.84
2019-05-16T07:07:03.185Z,81.65
2019-05-16T07:08:02.312Z,81.36
2019-05-16T07:09:02.259Z,81.46
2019-05-16T07:10:04.621Z,81.65
2019-05-16T07:11:02.187Z,81.46
2019-05-16T07:12:02.099Z,81.74
2019-05-16T07:13:02.071Z,81.74
2019-05-16T07:14:01.997Z,81.65
2019-05-16T07:15:02.372Z,81.46
2019-05-16T07:16:01.890Z,81.46
2019-05-16T07:17:01.948Z,81.26
2019-05-16T07:18:01.819Z,81.07
2019-05-16T07:19:01.737Z,81.55
2019-05-16T07:20:01.686Z,81.17
2019-05-16T07:21:01.676Z,82.21
2019-05-16T07:22:01.577Z,82.60
2019-05-16T07:23:01.563Z,82.41
2019-05-16T07:24:01.470Z,82.41
2019-05-16T07:25:01.426Z,82.35
2019-05-16T07:26:01.368Z,81.68
2019-05-16T07:27:01.373Z,82.17
2019-05-16T07:28:01.289Z,81.68
2019-05-16T07:29:01.223Z,81.49
2019-05-16T07:30:01.567Z,80.83
2019-05-16T07:31:14.386Z,80.64
2019-05-16T07:32:01.058Z,80.54
2019-05-16T07:33:01.028Z,80.44
2019-05-16T07:34:01.024Z,80.92
2019-05-16T07:35:00.902Z,80.54
2019-05-16T07:36:00.858Z,79.97
2019-05-16T07:37:00.794Z,79.59
2019-05-16T07:38:00.767Z,80.35
2019-05-16T07:39:00.691Z,81.12
2019-05-16T07:40:14.567Z,80.83
2019-05-16T07:41:00.617Z,80.54
2019-05-16T07:42:00.552Z,80.54
2019-05-16T07:43:00.514Z,81.02
2019-05-16T07:44:01.046Z,80.73
2019-05-16T07:45:00.796Z,80.54
2019-05-16T07:46:00.662Z,80.44
2019-05-16T07:47:01.001Z,80.44
2019-05-16T07:48:00.252Z,80.92
2019-05-16T07:49:01.171Z,80.83
2019-05-16T07:50:00.124Z,81.49
2019-05-16T07:51:00.544Z,80.54
2019-05-16T07:52:00.559Z,80.73
2019-05-16T07:53:00.081Z,80.92
2019-05-16T07:53:59.917Z,80.64
2019-05-16T07:55:00.922Z,80.73
2019-05-16T07:56:00.173Z,80.54
2019-05-16T07:57:11.687Z,81.49
2019-05-16T07:57:59.734Z,80.54
2019-05-16T07:59:00.896Z,80.35
2019-05-16T08:00:00.169Z,79.78
2019-05-16T08:01:06.796Z,79.53
2019-05-16T08:02:00.522Z,80.30
2019-05-16T08:03:00.016Z,79.91
2019-05-16T08:04:00.016Z,80.01
2019-05-16T08:05:00.731Z,78.67
2019-05-16T08:06:01.803Z,78.77
2019-05-16T08:07:00.699Z,78.67
2019-05-16T08:08:00.036Z,78.86
2019-05-16T08:09:00.170Z,77.57
2019-05-16T08:09:59.851Z,77.62
2019-05-16T08:11:01.480Z,77.25
2019-05-16T08:12:01.574Z,77.91
2019-05-16T08:13:03.386Z,79.44
2019-05-16T08:14:01.026Z,79.44
2019-05-16T08:15:00.761Z,78.81
2019-05-16T08:16:01.136Z,78.39
2019-05-16T08:17:01.123Z,79.25
2019-05-16T08:18:03.164Z,79.06
2019-05-16T08:19:00.911Z,79.53
2019-05-16T08:20:00.069Z,79.35
2019-05-16T08:21:00.747Z,79.06
2019-05-16T08:22:01.048Z,80.11
2019-05-16T08:23:00.817Z,79.67
2019-05-16T08:24:05.801Z,79.28
2019-05-16T08:25:00.218Z,79.38
2019-05-16T08:26:00.900Z,79.96
2019-05-16T08:27:01.130Z,79.19
2019-05-16T08:28:00.552Z,79.00
2019-05-16T08:29:01.771Z,78.23
2019-05-16T08:29:58.063Z,77.57
2019-05-16T08:31:00.869Z,77.57
2019-05-16T08:32:01.799Z,77.76
2019-05-16T08:33:01.922Z,77.47
2019-05-16T08:34:00.705Z,78.14
2019-05-16T08:35:00.803Z,78.23
2019-05-16T08:36:01.870Z,77.47
2019-05-16T08:37:00.954Z,76.90
2019-05-16T08:38:00.850Z,76.90
2019-05-16T08:39:00.911Z,77.86
2019-05-16T08:40:00.204Z,77.38
2019-05-16T08:41:08.130Z,76.90
2019-05-16T08:42:07.034Z,77.86
2019-05-16T08:43:00.272Z,77.67
2019-05-16T08:44:00.921Z,77.95
2019-05-16T08:44:57.297Z,77.28
2019-05-16T08:46:00.814Z,77.47
2019-05-16T08:46:58.291Z,77.57
2019-05-16T08:47:57.144Z,77.95
2019-05-16T08:48:57.135Z,77.47
2019-05-16T08:49:57.045Z,77.67
2019-05-16T08:50:56.991Z,77.76
2019-05-16T08:51:56.938Z,77.76
2019-05-16T08:52:56.885Z,77.76
2019-05-16T08:53:56.896Z,77.76
2019-05-16T08:54:56.813Z,77.47
2019-05-16T08:55:56.736Z,77.67
2019-05-16T08:56:56.734Z,77.67
2019-05-16T08:57:56.632Z,77.67
2019-05-16T08:58:56.581Z,78.52
2019-05-16T08:59:56.558Z,78.23
2019-05-16T09:00:56.478Z,78.33
2019-05-16T09:01:58.036Z,77.86
2019-05-16T09:02:56.376Z,78.14
2019-05-16T09:03:56.326Z,77.67
2019-05-16T09:04:56.299Z,78.43
2019-05-16T09:05:56.221Z,78.23
2019-05-16T09:06:56.169Z,78.14
2019-05-16T09:08:00.572Z,77.76
2019-05-16T09:09:02.864Z,77.67
2019-05-16T09:09:59.807Z,77.86
2019-05-16T09:11:02.121Z,77.47
2019-05-16T09:11:59.001Z,78.43
2019-05-16T09:12:57.252Z,77.67
2019-05-16T09:13:57.316Z,78.23
2019-05-16T09:14:59.395Z,77.67
2019-05-16T09:15:57.099Z,77.67
2019-05-16T09:16:58.021Z,78.77
2019-05-16T09:17:58.178Z,78.01
2019-05-16T09:18:57.606Z,78.23
2019-05-16T09:19:57.586Z,79.00
2019-05-16T09:20:57.799Z,78.49
2019-05-16T09:21:58.064Z,78.20
2019-05-16T09:22:57.831Z,79.44
2019-05-16T09:23:57.591Z,78.67
2019-05-16T09:24:57.722Z,79.00
2019-05-16T09:25:58.045Z,79.00
2019-05-16T09:26:57.678Z,78.43
2019-05-16T09:27:56.902Z,78.52
2019-05-16T09:28:57.680Z,78.14
2019-05-16T09:29:56.832Z,78.91
2019-05-16T09:30:57.543Z,78.62
2019-05-16T09:32:16.294Z,78.23
2019-05-16T09:32:54.843Z,77.76
2019-05-16T09:33:56.723Z,77.67
2019-05-16T09:34:57.411Z,77.47
2019-05-16T09:35:57.275Z,77.76
2019-05-16T09:37:00.436Z,77.47
2019-05-16T09:37:54.584Z,76.52
2019-05-16T09:38:57.643Z,76.90
2019-05-16T09:39:56.981Z,77.47
2019-05-16T09:40:56.982Z,77.57
2019-05-16T09:41:58.121Z,77.86
2019-05-16T09:42:56.694Z,77.47
2019-05-16T09:43:54.309Z,78.23
2019-05-16T09:44:54.229Z,77.86
2019-05-16T09:45:59.912Z,77.95
2019-05-16T09:46:56.810Z,77.47
2019-05-16T09:47:57.096Z,77.95
2019-05-16T09:49:12.964Z,77.57
2019-05-16T09:49:53.973Z,77.57
2019-05-16T09:50:53.948Z,77.67
2019-05-16T09:51:53.875Z,77.95
2019-05-16T09:52:53.821Z,79.00
2019-05-16T09:53:53.768Z,78.91
2019-05-16T09:54:53.722Z,79.48
2019-05-16T09:55:53.694Z,79.48
2019-05-16T09:56:53.637Z,80.05
2019-05-16T09:57:55.008Z,80.72
2019-05-16T09:58:53.514Z,80.53
2019-05-16T09:59:53.466Z,79.77
2019-05-16T10:00:53.436Z,79.96
2019-05-16T10:01:53.368Z,80.72
2019-05-16T10:02:53.309Z,80.43
2019-05-16T10:03:53.257Z,80.81
2019-05-16T10:04:53.205Z,80.91
2019-05-16T10:05:53.178Z,80.53
2019-05-16T10:06:53.107Z,80.33
2019-05-16T10:07:53.060Z,80.39
2019-05-16T10:08:52.999Z,79.91
2019-05-16T10:09:52.950Z,81.73
2019-05-16T10:10:52.933Z,81.35
2019-05-16T10:12:06.934Z,81.44
2019-05-16T10:12:52.798Z,81.44
2019-05-16T10:13:52.745Z,81.92
2019-05-16T10:14:52.705Z,81.15
2019-05-16T10:15:52.668Z,82.01
2019-05-16T10:16:52.589Z,81.63
2019-05-16T10:17:52.539Z,81.54
2019-05-16T10:18:52.502Z,81.54
2019-05-16T10:19:52.437Z,81.25
2019-05-16T10:20:52.408Z,81.25
2019-05-16T10:21:52.331Z,81.25
2019-05-16T10:22:52.281Z,80.58
2019-05-16T10:23:52.230Z,80.96
2019-05-16T10:24:52.220Z,81.06
2019-05-16T10:25:52.151Z,79.91
2019-05-16T10:26:54.002Z,79.82
2019-05-16T10:27:52.025Z,79.72
2019-05-16T10:28:51.985Z,80.39
2019-05-16T10:29:51.923Z,80.20
2019-05-16T10:30:51.893Z,80.01
2019-05-16T10:31:53.241Z,80.01
2019-05-16T10:32:51.763Z,80.11
2019-05-16T10:33:51.719Z,79.53
2019-05-16T10:34:51.656Z,79.91
2019-05-16T10:35:51.637Z,79.91
2019-05-16T10:36:51.559Z,80.53
2019-05-16T10:37:51.506Z,80.15
2019-05-16T10:38:51.455Z,80.15
2019-05-16T10:39:51.407Z,80.24
2019-05-16T10:40:51.407Z,80.24
2019-05-16T10:41:51.311Z,80.53
2019-05-16T10:42:51.253Z,81.38
2019-05-16T10:43:51.218Z,80.15
2019-05-16T10:44:51.142Z,79.67
2019-05-16T10:45:53.578Z,79.44
2019-05-16T10:46:51.074Z,79.72
2019-05-16T10:47:50.993Z,80.30
2019-05-16T10:48:50.942Z,80.20
2019-05-16T10:49:50.901Z,80.68
2019-05-16T10:50:50.862Z,80.30
2019-05-16T10:51:50.828Z,80.81
2019-05-16T10:53:13.327Z,80.58
2019-05-16T10:54:05.706Z,80.68
2019-05-16T10:54:57.480Z,80.43
2019-05-16T10:55:50.595Z,81.29
2019-05-16T10:56:50.721Z,80.91
2019-05-16T10:57:50.637Z,80.43
2019-05-16T10:59:14.722Z,80.15
2019-05-16T11:00:05.101Z,80.01
2019-05-16T11:01:19.449Z,80.39
2019-05-16T11:01:50.293Z,79.82
2019-05-16T11:02:50.247Z,79.35
2019-05-16T11:03:50.173Z,80.05
2019-05-16T11:05:00.055Z,79.48
2019-05-16T11:06:02.924Z,80.43
2019-05-16T11:06:50.049Z,80.15
2019-05-16T11:07:53.180Z,79.57
2019-05-16T11:08:49.904Z,79.38
2019-05-16T11:09:58.287Z,79.10
2019-05-16T11:10:49.853Z,78.52
2019-05-16T11:11:49.786Z,78.72
2019-05-16T11:12:54.752Z,78.72
2019-05-16T11:13:51.247Z,78.91
2019-05-16T11:14:49.604Z,79.43
2019-05-16T11:15:49.558Z,79.43
2019-05-16T11:16:49.536Z,79.33
2019-05-16T11:17:49.469Z,78.47
2019-05-16T11:18:49.404Z,78.47
2019-05-16T11:19:49.348Z,77.70
2019-05-16T11:20:49.675Z,78.28
2019-05-16T11:21:49.278Z,77.89
2019-05-16T11:22:49.200Z,77.89
2019-05-16T11:23:49.146Z,77.80
2019-05-16T11:24:49.091Z,79.04
2019-05-16T11:25:49.039Z,78.66
2019-05-16T11:26:49.012Z,78.94
2019-05-16T11:27:48.945Z,79.52
2019-05-16T11:28:49.422Z,78.66
2019-05-16T11:29:48.833Z,79.52
2019-05-16T11:30:49.862Z,79.33
2019-05-16T11:31:48.765Z,79.04
2019-05-16T11:32:48.687Z,79.23
2019-05-16T11:33:48.636Z,78.47
2019-05-16T11:34:48.586Z,79.33
2019-05-16T11:35:48.533Z,79.04
2019-05-16T11:36:48.498Z,78.94
2019-05-16T11:37:48.427Z,78.75
2019-05-16T11:38:48.383Z,78.85
2019-05-16T11:39:48.328Z,78.56
2019-05-16T11:40:48.296Z,78.85
2019-05-16T11:41:48.262Z,78.56
2019-05-16T11:43:05.104Z,78.85
2019-05-16T11:43:48.124Z,79.61
2019-05-16T11:44:48.077Z,79.61
2019-05-16T11:45:48.021Z,78.94
2019-05-16T11:46:48.997Z,78.72
2019-05-16T11:47:47.945Z,78.52
2019-05-16T11:48:48.980Z,78.56
2019-05-16T11:49:47.815Z,79.10
2019-05-16T11:50:48.248Z,78.43
2019-05-16T11:51:47.716Z,79.19
2019-05-16T11:52:48.003Z,79.38
2019-05-16T11:53:47.791Z,79.28
2019-05-16T11:54:47.567Z,79.28
2019-05-16T11:55:54.405Z,79.38
2019-05-16T11:56:47.460Z,80.38
2019-05-16T11:57:47.795Z,79.67
2019-05-16T11:58:47.449Z,79.96
2019-05-16T11:59:47.305Z,79.96
2019-05-16T12:00:48.258Z,80.62
2019-05-16T12:01:47.601Z,80.62
2019-05-16T12:02:47.959Z,80.33
2019-05-16T12:03:47.098Z,80.43
2019-05-16T12:04:47.334Z,80.72
2019-05-16T12:05:48.167Z,81.29
2019-05-16T12:06:47.003Z,80.91
2019-05-16T12:07:48.338Z,79.57
2019-05-16T12:08:46.943Z,79.48
2019-05-16T12:09:53.026Z,79.86
2019-05-16T12:10:47.306Z,79.38
2019-05-16T12:11:46.697Z,80.43
2019-05-16T12:12:46.662Z,80.62
2019-05-16T12:13:47.575Z,80.24
2019-05-16T12:14:46.537Z,80.24
2019-05-16T12:15:46.496Z,80.05
2019-05-16T12:16:47.286Z,80.62
2019-05-16T12:18:00.263Z,80.43
2019-05-16T12:18:46.408Z,80.81
2019-05-16T12:19:48.206Z,81.38
2019-05-16T12:20:46.265Z,81.67
2019-05-16T12:21:46.211Z,81.48
2019-05-16T12:22:46.155Z,81.67
2019-05-16T12:23:47.302Z,81.86
2019-05-16T12:24:47.730Z,81.48
2019-05-16T12:25:47.619Z,81.77
2019-05-16T12:26:47.953Z,81.48
2019-05-16T12:27:48.061Z,81.48
2019-05-16T12:28:45.829Z,81.20
2019-05-16T12:29:50.269Z,81.38
2019-05-16T12:30:47.217Z,81.48
2019-05-16T12:31:55.305Z,82.20
2019-05-16T12:32:46.984Z,82.59
2019-05-16T12:33:47.860Z,82.34
2019-05-16T12:34:46.357Z,82.11
2019-05-16T12:35:47.507Z,82.59
2019-05-16T12:36:47.284Z,81.92
2019-05-16T12:37:47.727Z,82.59
2019-05-16T12:38:46.754Z,82.91
2019-05-16T12:39:47.071Z,82.72
2019-05-16T12:40:48.011Z,82.15
2019-05-16T12:41:49.124Z,82.06
2019-05-16T12:42:47.085Z,81.38
2019-05-16T12:43:50.505Z,81.82
2019-05-16T12:44:46.851Z,81.44
2019-05-16T12:45:47.138Z,81.54
2019-05-16T12:46:47.257Z,82.30
2019-05-16T12:47:47.287Z,82.11
2019-05-16T12:48:47.213Z,82.40
2019-05-16T12:49:47.083Z,82.49
2019-05-16T12:50:47.676Z,82.82
2019-05-16T12:51:46.244Z,82.72
2019-05-16T12:52:47.180Z,82.30
2019-05-16T12:53:44.563Z,83.16